Terminal Aerodrome Forecast
Issued by NWS Jacksonville, FL

Home | Current Version | Previous Version | Text Only | Print | Product List | Glossary On
Versions: 1 2 3 4 5 6 7 8 9 10 11 12 13 14 15 16 17 18
916
FTUS42 KJAX 281720
TAFJAX
TAF
KJAX 281720Z 2818/2918 26007KT P6SM SCT030 SCT250
     FM282000 12008KT P6SM VCSH BKN050
     FM290100 20005KT P6SM FEW050 SCT250=

USA.gov is the U.S. government's official web portal to all federal, state and local government web resources and services.